sensor_id;sensor_type;location;lat;lon;timestamp;temperature;humidity
20291;DHT22;10304;51.074;13.754;2024-01-11T00:01:47;-3.00;99.90
20291;DHT22;10304;51.074;13.754;2024-01-11T00:04:15;-3.00;99.90
20291;DHT22;10304;51.074;13.754;2024-01-11T00:06:43;-3.10;99.90
20291;DHT22;10304;51.074;13.754;2024-01-11T00:09:11;-3.20;99.90
20291;DHT22;10304;51.074;13.754;2024-01-11T00:11:38;-3.20;99.90
20291;DHT22;10304;51.074;13.754;2024-01-11T00:14:05;-3.20;99.90
20291;DHT22;10304;51.074;13.754;2024-01-11T00:16:32;-3.30;99.90
20291;DHT22;10304;51.074;13.754;2024-01-11T00:19:00;-3.30;99.90
20291;DHT22;10304;51.074;13.754;2024-01-11T00:21:27;-3.40;99.90
20291;DHT22;10304;51.074;13.754;2024-01-11T00:23:54;-3.50;99.90
20291;DHT22;10304;51.074;13.754;2024-01-11T00:26:21;-3.50;99.90
20291;DHT22;10304;51.074;13.754;2024-01-11T00:28:48;-3.60;99.90
20291;DHT22;10304;51.074;13.754;2024-01-11T00:31:15;-3.60;99.90
20291;DHT22;10304;51.074;13.754;2024-01-11T00:33:42;-3.60;99.90
20291;DHT22;10304;51.074;13.754;2024-01-11T00:36:09;-3.70;99.90
20291;DHT22;10304;51.074;13.754;2024-01-11T00:38:36;-3.70;99.90
20291;DHT22;10304;51.074;13.754;2024-01-11T00:41:04;-3.70;99.90
20291;DHT22;10304;51.074;13.754;2024-01-11T00:43:31;-3.80;99.90
20291;DHT22;10304;51.074;13.754;2024-01-11T00:45:57;-3.80;99.90
20291;DHT22;10304;51.074;13.754;2024-01-11T00:48:24;-3.90;99.90
20291;DHT22;10304;51.074;13.754;2024-01-11T00:50:52;-3.90;99.90
20291;DHT22;10304;51.074;13.754;2024-01-11T00:53:18;-4.00;99.90
20291;DHT22;10304;51.074;13.754;2024-01-11T00:55:51;-4.00;99.90
20291;DHT22;10304;51.074;13.754;2024-01-11T00:58:18;-4.00;99.90
20291;DHT22;10304;51.074;13.754;2024-01-11T01:00:45;-4.00;99.90
20291;DHT22;10304;51.074;13.754;2024-01-11T01:03:11;-4.00;99.90
20291;DHT22;10304;51.074;13.754;2024-01-11T01:05:39;-4.10;99.90
20291;DHT22;10304;51.074;13.754;2024-01-11T01:08:06;-4.10;99.90
20291;DHT22;10304;51.074;13.754;2024-01-11T01:10:33;-4.20;99.90
20291;DHT22;10304;51.074;13.754;2024-01-11T01:13:00;-4.20;99.90
20291;DHT22;10304;51.074;13.754;2024-01-11T01:15:27;-4.20;99.90
20291;DHT22;10304;51.074;13.754;2024-01-11T01:17:54;-4.20;99.90
20291;DHT22;10304;51.074;13.754;2024-01-11T01:20:22;-4.30;99.90
20291;DHT22;10304;51.074;13.754;2024-01-11T01:22:49;-4.30;99.90
20291;DHT22;10304;51.074;13.754;2024-01-11T01:25:16;-4.30;99.90
20291;DHT22;10304;51.074;13.754;2024-01-11T01:27:43;-4.30;99.90
20291;DHT22;10304;51.074;13.754;2024-01-11T01:30:10;-4.30;99.90
20291;DHT22;10304;51.074;13.754;2024-01-11T01:32:37;-4.40;99.90
20291;DHT22;10304;51.074;13.754;2024-01-11T01:35:04;-4.40;99.90
20291;DHT22;10304;51.074;13.754;2024-01-11T01:37:31;-4.40;99.90
20291;DHT22;10304;51.074;13.754;2024-01-11T01:39:58;-4.40;99.90
20291;DHT22;10304;51.074;13.754;2024-01-11T01:42:25;-4.40;99.90
20291;DHT22;10304;51.074;13.754;2024-01-11T01:44:52;-4.40;99.90
20291;DHT22;10304;51.074;13.754;2024-01-11T01:47:19;-4.50;99.90
20291;DHT22;10304;51.074;13.754;2024-01-11T01:49:49;-4.50;99.90
20291;DHT22;10304;51.074;13.754;2024-01-11T01:52:16;-4.50;99.90
20291;DHT22;10304;51.074;13.754;2024-01-11T01:54:43;-4.50;99.90
20291;DHT22;10304;51.074;13.754;2024-01-11T01:57:11;-4.50;99.90
20291;DHT22;10304;51.074;13.754;2024-01-11T01:59:40;-4.50;99.90
20291;DHT22;10304;51.074;13.754;2024-01-11T02:02:08;-4.50;99.90
20291;DHT22;10304;51.074;13.754;2024-01-11T02:04:36;-4.50;99.90
20291;DHT22;10304;51.074;13.754;2024-01-11T02:07:04;-4.50;99.90
20291;DHT22;10304;51.074;13.754;2024-01-11T02:09:33;-4.60;99.90
20291;DHT22;10304;51.074;13.754;2024-01-11T02:12:01;-4.60;99.90
20291;DHT22;10304;51.074;13.754;2024-01-11T02:14:30;-4.60;99.90
20291;DHT22;10304;51.074;13.754;2024-01-11T02:16:57;-4.60;99.90
20291;DHT22;10304;51.074;13.754;2024-01-11T02:19:24;-4.60;99.90
20291;DHT22;10304;51.074;13.754;2024-01-11T02:21:53;-4.60;99.90
20291;DHT22;10304;51.074;13.754;2024-01-11T02:24:21;-4.60;99.90
20291;DHT22;10304;51.074;13.754;2024-01-11T02:27:02;-4.60;99.90
20291;DHT22;10304;51.074;13.754;2024-01-11T02:29:30;-4.70;99.90
20291;DHT22;10304;51.074;13.754;2024-01-11T02:32:00;-4.70;99.90
20291;DHT22;10304;51.074;13.754;2024-01-11T02:34:28;-4.60;99.90
20291;DHT22;10304;51.074;13.754;2024-01-11T02:36:56;-4.70;99.90
20291;DHT22;10304;51.074;13.754;2024-01-11T02:39:24;-4.70;99.90
20291;DHT22;10304;51.074;13.754;2024-01-11T02:41:54;-4.70;99.90
20291;DHT22;10304;51.074;13.754;2024-01-11T02:44:21;-4.70;99.90
20291;DHT22;10304;51.074;13.754;2024-01-11T02:46:48;-4.70;99.90
20291;DHT22;10304;51.074;13.754;2024-01-11T02:49:15;-4.70;99.90
20291;DHT22;10304;51.074;13.754;2024-01-11T02:51:42;-4.70;99.90
20291;DHT22;10304;51.074;13.754;2024-01-11T02:54:09;-4.70;99.90
20291;DHT22;10304;51.074;13.754;2024-01-11T02:56:36;-4.70;99.90
20291;DHT22;10304;51.074;13.754;2024-01-11T02:59:02;-4.80;99.90
20291;DHT22;10304;51.074;13.754;2024-01-11T03:01:29;-4.80;99.90
20291;DHT22;10304;51.074;13.754;2024-01-11T03:03:57;-4.80;99.90
20291;DHT22;10304;51.074;13.754;2024-01-11T03:06:24;-4.80;99.90
20291;DHT22;10304;51.074;13.754;2024-01-11T03:08:51;-4.80;99.90
20291;DHT22;10304;51.074;13.754;2024-01-11T03:11:18;-4.70;99.90
20291;DHT22;10304;51.074;13.754;2024-01-11T03:13:45;-4.80;99.90
20291;DHT22;10304;51.074;13.754;2024-01-11T03:16:12;-4.80;99.90
20291;DHT22;10304;51.074;13.754;2024-01-11T03:18:39;-4.80;99.90
20291;DHT22;10304;51.074;13.754;2024-01-11T03:21:06;-4.80;99.90
20291;DHT22;10304;51.074;13.754;2024-01-11T03:23:33;-4.80;99.90
20291;DHT22;10304;51.074;13.754;2024-01-11T03:26:00;-4.80;99.90
20291;DHT22;10304;51.074;13.754;2024-01-11T03:28:28;-4.90;99.90
20291;DHT22;10304;51.074;13.754;2024-01-11T03:30:56;-4.90;99.90
20291;DHT22;10304;51.074;13.754;2024-01-11T03:33:23;-4.90;99.90
20291;DHT22;10304;51.074;13.754;2024-01-11T03:35:51;-4.90;99.90
20291;DHT22;10304;51.074;13.754;2024-01-11T03:38:18;-4.90;99.90
20291;DHT22;10304;51.074;13.754;2024-01-11T03:40:45;-4.90;99.90
20291;DHT22;10304;51.074;13.754;2024-01-11T03:43:11;-4.90;99.90
20291;DHT22;10304;51.074;13.754;2024-01-11T03:45:38;-4.90;99.90
20291;DHT22;10304;51.074;13.754;2024-01-11T03:48:05;-4.90;99.90
20291;DHT22;10304;51.074;13.754;2024-01-11T03:50:32;-4.90;99.90
20291;DHT22;10304;51.074;13.754;2024-01-11T03:52:59;-4.80;99.90
20291;DHT22;10304;51.074;13.754;2024-01-11T03:55:26;-4.80;99.90
20291;DHT22;10304;51.074;13.754;2024-01-11T03:57:53;-4.80;99.90
20291;DHT22;10304;51.074;13.754;2024-01-11T04:00:20;-4.80;99.90
20291;DHT22;10304;51.074;13.754;2024-01-11T04:02:47;-4.70;99.90
20291;DHT22;10304;51.074;13.754;2024-01-11T04:05:14;-4.70;99.90
20291;DHT22;10304;51.074;13.754;2024-01-11T04:07:42;-4.80;99.90
20291;DHT22;10304;51.074;13.754;2024-01-11T04:10:10;-4.80;99.90
20291;DHT22;10304;51.074;13.754;2024-01-11T04:12:37;-4.80;99.90
20291;DHT22;10304;51.074;13.754;2024-01-11T04:15:04;-4.80;99.90
20291;DHT22;10304;51.074;13.754;2024-01-11T04:17:31;-4.80;99.90
20291;DHT22;10304;51.074;13.754;2024-01-11T04:19:58;-4.80;99.90
20291;DHT22;10304;51.074;13.754;2024-01-11T04:22:28;-4.80;99.90
20291;DHT22;10304;51.074;13.754;2024-01-11T04:24:55;-4.80;99.90
20291;DHT22;10304;51.074;13.754;2024-01-11T04:27:22;-4.80;99.90
20291;DHT22;10304;51.074;13.754;2024-01-11T04:29:49;-4.80;99.90
20291;DHT22;10304;51.074;13.754;2024-01-11T04:32:15;-4.80;99.90
20291;DHT22;10304;51.074;13.754;2024-01-11T04:34:42;-4.80;99.90
20291;DHT22;10304;51.074;13.754;2024-01-11T04:37:09;-4.80;99.90
20291;DHT22;10304;51.074;13.754;2024-01-11T04:39:36;-4.80;99.90
20291;DHT22;10304;51.074;13.754;2024-01-11T04:42:03;-4.80;99.90
20291;DHT22;10304;51.074;13.754;2024-01-11T04:44:30;-4.80;99.90
20291;DHT22;10304;51.074;13.754;2024-01-11T04:46:57;-4.80;99.90
20291;DHT22;10304;51.074;13.754;2024-01-11T04:49:24;-4.80;99.90
20291;DHT22;10304;51.074;13.754;2024-01-11T04:51:51;-4.80;99.90
20291;DHT22;10304;51.074;13.754;2024-01-11T04:54:18;-4.80;99.90
20291;DHT22;10304;51.074;13.754;2024-01-11T04:56:45;-4.80;99.90
20291;DHT22;10304;51.074;13.754;2024-01-11T04:59:12;-4.80;99.90
20291;DHT22;10304;51.074;13.754;2024-01-11T05:01:39;-4.80;99.90
20291;DHT22;10304;51.074;13.754;2024-01-11T05:04:07;-4.90;99.90
20291;DHT22;10304;51.074;13.754;2024-01-11T05:06:34;-4.80;99.90
20291;DHT22;10304;51.074;13.754;2024-01-11T05:09:01;-4.80;99.90
20291;DHT22;10304;51.074;13.754;2024-01-11T05:11:27;-4.80;99.90
20291;DHT22;10304;51.074;13.754;2024-01-11T05:13:55;-4.80;99.90
20291;DHT22;10304;51.074;13.754;2024-01-11T05:16:27;-4.80;99.90
20291;DHT22;10304;51.074;13.754;2024-01-11T05:18:55;-4.80;99.90
20291;DHT22;10304;51.074;13.754;2024-01-11T05:21:24;-4.80;1.00
20291;DHT22;10304;51.074;13.754;2024-01-11T05:23:51;-4.80;1.00
20291;DHT22;10304;51.074;13.754;2024-01-11T05:26:19;-4.70;1.00
20291;DHT22;10304;51.074;13.754;2024-01-11T05:28:47;-4.70;1.00
20291;DHT22;10304;51.074;13.754;2024-01-11T05:31:15;-4.60;1.00
20291;DHT22;10304;51.074;13.754;2024-01-11T05:33:43;-4.60;1.00
20291;DHT22;10304;51.074;13.754;2024-01-11T05:36:11;-4.60;1.00
20291;DHT22;10304;51.074;13.754;2024-01-11T05:38:39;-4.60;99.90
20291;DHT22;10304;51.074;13.754;2024-01-11T05:41:07;-4.60;99.90
20291;DHT22;10304;51.074;13.754;2024-01-11T05:43:36;-4.60;99.90
20291;DHT22;10304;51.074;13.754;2024-01-11T05:46:04;-4.60;99.90
20291;DHT22;10304;51.074;13.754;2024-01-11T05:48:31;-4.60;99.90
20291;DHT22;10304;51.074;13.754;2024-01-11T05:50:58;-4.60;99.90
20291;DHT22;10304;51.074;13.754;2024-01-11T05:53:26;-4.60;99.90
20291;DHT22;10304;51.074;13.754;2024-01-11T05:55:54;-4.60;99.90
20291;DHT22;10304;51.074;13.754;2024-01-11T05:58:21;-4.60;99.90
20291;DHT22;10304;51.074;13.754;2024-01-11T06:00:48;-4.60;99.90
20291;DHT22;10304;51.074;13.754;2024-01-11T06:03:15;-4.60;99.90
20291;DHT22;10304;51.074;13.754;2024-01-11T06:05:42;-4.60;99.90
20291;DHT22;10304;51.074;13.754;2024-01-11T06:08:09;-4.60;99.90
20291;DHT22;10304;51.074;13.754;2024-01-11T06:10:36;-4.70;99.90
20291;DHT22;10304;51.074;13.754;2024-01-11T06:13:04;-4.80;99.90
20291;DHT22;10304;51.074;13.754;2024-01-11T06:15:31;-4.80;99.90
20291;DHT22;10304;51.074;13.754;2024-01-11T06:17:58;-4.80;99.90
20291;DHT22;10304;51.074;13.754;2024-01-11T06:20:26;-4.80;99.90
20291;DHT22;10304;51.074;13.754;2024-01-11T06:22:52;-4.90;99.90
20291;DHT22;10304;51.074;13.754;2024-01-11T06:25:19;-4.90;99.90
20291;DHT22;10304;51.074;13.754;2024-01-11T06:27:46;-4.90;99.90
20291;DHT22;10304;51.074;13.754;2024-01-11T06:30:14;-4.90;99.90
20291;DHT22;10304;51.074;13.754;2024-01-11T06:32:41;-4.90;99.90
20291;DHT22;10304;51.074;13.754;2024-01-11T06:35:08;-4.90;99.90
20291;DHT22;10304;51.074;13.754;2024-01-11T06:37:36;-4.90;99.90
20291;DHT22;10304;51.074;13.754;2024-01-11T06:40:03;-4.90;99.90
20291;DHT22;10304;51.074;13.754;2024-01-11T06:42:31;-4.90;99.90
20291;DHT22;10304;51.074;13.754;2024-01-11T06:45:00;-4.90;99.90
20291;DHT22;10304;51.074;13.754;2024-01-11T06:47:28;-4.90;99.90
20291;DHT22;10304;51.074;13.754;2024-01-11T06:49:55;-5.00;99.90
20291;DHT22;10304;51.074;13.754;2024-01-11T06:52:22;-5.00;99.90
20291;DHT22;10304;51.074;13.754;2024-01-11T06:54:49;-5.00;99.90
20291;DHT22;10304;51.074;13.754;2024-01-11T06:57:16;-5.00;99.90
20291;DHT22;10304;51.074;13.754;2024-01-11T06:59:43;-4.90;99.90
20291;DHT22;10304;51.074;13.754;2024-01-11T07:02:13;-4.90;99.90
20291;DHT22;10304;51.074;13.754;2024-01-11T07:04:44;-4.90;1.00
20291;DHT22;10304;51.074;13.754;2024-01-11T07:07:12;-4.80;1.00
20291;DHT22;10304;51.074;13.754;2024-01-11T07:09:39;-4.80;1.00
20291;DHT22;10304;51.074;13.754;2024-01-11T07:12:07;-4.80;1.00
20291;DHT22;10304;51.074;13.754;2024-01-11T07:14:35;-4.70;1.00
20291;DHT22;10304;51.074;13.754;2024-01-11T07:17:02;-4.70;1.00
20291;DHT22;10304;51.074;13.754;2024-01-11T07:19:31;-4.60;1.00
20291;DHT22;10304;51.074;13.754;2024-01-11T07:21:58;-4.60;1.00
20291;DHT22;10304;51.074;13.754;2024-01-11T07:24:25;-4.60;1.00
20291;DHT22;10304;51.074;13.754;2024-01-11T07:26:52;-4.50;1.00
20291;DHT22;10304;51.074;13.754;2024-01-11T07:29:21;-4.40;1.00
20291;DHT22;10304;51.074;13.754;2024-01-11T07:31:48;-4.40;1.00
20291;DHT22;10304;51.074;13.754;2024-01-11T07:34:15;-4.40;1.00
20291;DHT22;10304;51.074;13.754;2024-01-11T07:36:42;-4.30;1.00
20291;DHT22;10304;51.074;13.754;2024-01-11T07:39:09;-4.20;1.00
20291;DHT22;10304;51.074;13.754;2024-01-11T07:41:36;-4.10;1.00
20291;DHT22;10304;51.074;13.754;2024-01-11T07:44:03;-4.00;1.00
20291;DHT22;10304;51.074;13.754;2024-01-11T07:46:30;-4.00;1.00
20291;DHT22;10304;51.074;13.754;2024-01-11T07:49:08;-3.90;1.00
20291;DHT22;10304;51.074;13.754;2024-01-11T07:51:35;-3.90;1.00
20291;DHT22;10304;51.074;13.754;2024-01-11T07:54:02;-3.80;1.00
20291;DHT22;10304;51.074;13.754;2024-01-11T07:56:30;-3.70;1.00
20291;DHT22;10304;51.074;13.754;2024-01-11T07:58:57;-3.70;1.00
20291;DHT22;10304;51.074;13.754;2024-01-11T08:01:24;-3.70;1.00
20291;DHT22;10304;51.074;13.754;2024-01-11T08:03:51;-3.70;99.90
20291;DHT22;10304;51.074;13.754;2024-01-11T08:06:19;-3.60;99.90
20291;DHT22;10304;51.074;13.754;2024-01-11T08:08:47;-3.60;99.90
20291;DHT22;10304;51.074;13.754;2024-01-11T08:11:19;-3.50;1.00
20291;DHT22;10304;51.074;13.754;2024-01-11T08:13:47;-3.50;1.00
20291;DHT22;10304;51.074;13.754;2024-01-11T08:16:17;-3.50;1.00
20291;DHT22;10304;51.074;13.754;2024-01-11T08:18:45;-3.40;1.00
20291;DHT22;10304;51.074;13.754;2024-01-11T08:21:13;-3.30;1.00
20291;DHT22;10304;51.074;13.754;2024-01-11T08:23:42;-3.20;1.00
20291;DHT22;10304;51.074;13.754;2024-01-11T08:26:16;-3.10;1.00
20291;DHT22;10304;51.074;13.754;2024-01-11T08:28:45;-3.00;1.00
20291;DHT22;10304;51.074;13.754;2024-01-11T08:31:12;-2.90;1.00
20291;DHT22;10304;51.074;13.754;2024-01-11T08:33:39;-2.80;99.90
20291;DHT22;10304;51.074;13.754;2024-01-11T08:36:07;-2.70;99.90
20291;DHT22;10304;51.074;13.754;2024-01-11T08:38:34;-2.50;99.90
20291;DHT22;10304;51.074;13.754;2024-01-11T08:41:03;-2.40;99.90
20291;DHT22;10304;51.074;13.754;2024-01-11T08:43:31;-2.20;99.90
20291;DHT22;10304;51.074;13.754;2024-01-11T08:45:58;-2.10;99.90
20291;DHT22;10304;51.074;13.754;2024-01-11T08:48:25;-1.90;99.90
20291;DHT22;10304;51.074;13.754;2024-01-11T08:50:53;-1.60;99.90
20291;DHT22;10304;51.074;13.754;2024-01-11T08:53:20;-1.40;99.90
20291;DHT22;10304;51.074;13.754;2024-01-11T08:55:48;-1.10;99.90
20291;DHT22;10304;51.074;13.754;2024-01-11T08:58:15;-0.80;99.90
20291;DHT22;10304;51.074;13.754;2024-01-11T09:00:42;-0.60;99.90
20291;DHT22;10304;51.074;13.754;2024-01-11T09:03:11;-0.40;99.90
20291;DHT22;10304;51.074;13.754;2024-01-11T09:05:41;-0.20;99.90
20291;DHT22;10304;51.074;13.754;2024-01-11T09:08:08;0.00;99.90
20291;DHT22;10304;51.074;13.754;2024-01-11T09:10:35;0.10;99.90
20291;DHT22;10304;51.074;13.754;2024-01-11T09:13:02;0.30;99.90
20291;DHT22;10304;51.074;13.754;2024-01-11T09:15:30;0.50;99.90
20291;DHT22;10304;51.074;13.754;2024-01-11T09:17:58;0.70;99.90
20291;DHT22;10304;51.074;13.754;2024-01-11T09:20:27;0.90;96.20
20291;DHT22;10304;51.074;13.754;2024-01-11T09:22:54;1.20;68.20
20291;DHT22;10304;51.074;13.754;2024-01-11T09:25:22;1.40;35.80
20291;DHT22;10304;51.074;13.754;2024-01-11T09:27:50;1.70;23.60
20291;DHT22;10304;51.074;13.754;2024-01-11T09:30:17;1.90;11.60
20291;DHT22;10304;51.074;13.754;2024-01-11T09:32:44;2.10;1.00
20291;DHT22;10304;51.074;13.754;2024-01-11T09:35:11;2.40;1.00
20291;DHT22;10304;51.074;13.754;2024-01-11T09:37:42;2.50;1.00
20291;DHT22;10304;51.074;13.754;2024-01-11T09:40:10;2.60;1.00
20291;DHT22;10304;51.074;13.754;2024-01-11T09:42:38;2.80;1.00
20291;DHT22;10304;51.074;13.754;2024-01-11T09:45:14;3.00;1.00
20291;DHT22;10304;51.074;13.754;2024-01-11T09:47:45;3.10;1.00
20291;DHT22;10304;51.074;13.754;2024-01-11T09:50:16;3.20;1.00
20291;DHT22;10304;51.074;13.754;2024-01-11T09:52:48;3.20;1.00
20291;DHT22;10304;51.074;13.754;2024-01-11T09:55:16;3.30;1.00
20291;DHT22;10304;51.074;13.754;2024-01-11T09:57:48;3.20;1.00
20291;DHT22;10304;51.074;13.754;2024-01-11T10:00:21;3.20;1.00
20291;DHT22;10304;51.074;13.754;2024-01-11T10:02:49;3.20;1.00
20291;DHT22;10304;51.074;13.754;2024-01-11T10:05:17;3.10;1.00
20291;DHT22;10304;51.074;13.754;2024-01-11T10:07:46;3.10;1.00
20291;DHT22;10304;51.074;13.754;2024-01-11T10:10:13;3.00;1.00
20291;DHT22;10304;51.074;13.754;2024-01-11T10:12:42;3.00;1.00
20291;DHT22;10304;51.074;13.754;2024-01-11T10:15:10;2.90;1.00
20291;DHT22;10304;51.074;13.754;2024-01-11T10:17:44;2.80;1.00
20291;DHT22;10304;51.074;13.754;2024-01-11T10:20:15;2.80;1.00
20291;DHT22;10304;51.074;13.754;2024-01-11T10:22:46;2.70;1.00
20291;DHT22;10304;51.074;13.754;2024-01-11T10:25:14;2.70;1.00
20291;DHT22;10304;51.074;13.754;2024-01-11T10:27:43;2.70;1.00
20291;DHT22;10304;51.074;13.754;2024-01-11T10:30:13;2.70;1.00
20291;DHT22;10304;51.074;13.754;2024-01-11T10:32:45;2.70;1.00
20291;DHT22;10304;51.074;13.754;2024-01-11T10:35:13;2.70;1.00
20291;DHT22;10304;51.074;13.754;2024-01-11T10:37:41;2.80;1.00
20291;DHT22;10304;51.074;13.754;2024-01-11T10:40:10;2.90;1.00
20291;DHT22;10304;51.074;13.754;2024-01-11T10:42:43;3.20;1.00
20291;DHT22;10304;51.074;13.754;2024-01-11T10:45:20;3.40;1.00
20291;DHT22;10304;51.074;13.754;2024-01-11T10:47:56;3.80;1.00
20291;DHT22;10304;51.074;13.754;2024-01-11T10:50:33;4.20;1.00
20291;DHT22;10304;51.074;13.754;2024-01-11T10:55:57;5.20;1.00
20291;DHT22;10304;51.074;13.754;2024-01-11T10:58:26;5.50;1.00
20291;DHT22;10304;51.074;13.754;2024-01-11T11:00:54;5.70;1.00
20291;DHT22;10304;51.074;13.754;2024-01-11T11:03:25;5.90;1.00
20291;DHT22;10304;51.074;13.754;2024-01-11T11:05:53;6.10;1.00
20291;DHT22;10304;51.074;13.754;2024-01-11T11:08:23;6.20;1.00
20291;DHT22;10304;51.074;13.754;2024-01-11T11:10:55;6.20;1.00
20291;DHT22;10304;51.074;13.754;2024-01-11T11:13:24;6.20;1.00
20291;DHT22;10304;51.074;13.754;2024-01-11T11:15:53;6.30;1.00
20291;DHT22;10304;51.074;13.754;2024-01-11T11:18:21;6.40;1.00
20291;DHT22;10304;51.074;13.754;2024-01-11T11:20:50;6.50;1.00
20291;DHT22;10304;51.074;13.754;2024-01-11T11:23:18;6.70;1.00
20291;DHT22;10304;51.074;13.754;2024-01-11T11:25:46;6.80;1.00
20291;DHT22;10304;51.074;13.754;2024-01-11T11:28:16;6.90;1.00
20291;DHT22;10304;51.074;13.754;2024-01-11T11:30:44;7.00;1.00
20291;DHT22;10304;51.074;13.754;2024-01-11T11:33:20;7.20;1.00
20291;DHT22;10304;51.074;13.754;2024-01-11T11:35:48;7.40;1.00
20291;DHT22;10304;51.074;13.754;2024-01-11T11:38:24;7.70;1.00
20291;DHT22;10304;51.074;13.754;2024-01-11T11:40:53;8.10;1.00
20291;DHT22;10304;51.074;13.754;2024-01-11T11:43:22;8.50;1.00
20291;DHT22;10304;51.074;13.754;2024-01-11T11:45:50;8.80;1.00
20291;DHT22;10304;51.074;13.754;2024-01-11T11:53:36;9.20;1.00
20291;DHT22;10304;51.074;13.754;2024-01-11T11:56:05;9.20;1.00
20291;DHT22;10304;51.074;13.754;2024-01-11T11:58:34;9.20;1.00
20291;DHT22;10304;51.074;13.754;2024-01-11T12:01:02;9.10;1.00
20291;DHT22;10304;51.074;13.754;2024-01-11T12:03:32;9.10;1.00
20291;DHT22;10304;51.074;13.754;2024-01-11T12:06:00;8.90;1.00
20291;DHT22;10304;51.074;13.754;2024-01-11T12:08:28;8.70;1.00
20291;DHT22;10304;51.074;13.754;2024-01-11T12:10:55;8.40;1.00
20291;DHT22;10304;51.074;13.754;2024-01-11T12:13:22;8.30;1.00
20291;DHT22;10304;51.074;13.754;2024-01-11T12:15:50;8.10;1.00
20291;DHT22;10304;51.074;13.754;2024-01-11T12:18:17;7.90;1.00
20291;DHT22;10304;51.074;13.754;2024-01-11T12:20:45;7.70;1.00
20291;DHT22;10304;51.074;13.754;2024-01-11T12:23:13;7.50;1.00
20291;DHT22;10304;51.074;13.754;2024-01-11T12:25:41;7.30;1.00
20291;DHT22;10304;51.074;13.754;2024-01-11T12:28:09;7.20;1.00
20291;DHT22;10304;51.074;13.754;2024-01-11T12:30:36;7.10;1.00
20291;DHT22;10304;51.074;13.754;2024-01-11T12:33:05;7.00;1.00
20291;DHT22;10304;51.074;13.754;2024-01-11T12:35:33;7.00;1.00
20291;DHT22;10304;51.074;13.754;2024-01-11T12:38:04;6.90;1.00
20291;DHT22;10304;51.074;13.754;2024-01-11T12:40:37;6.90;1.00
20291;DHT22;10304;51.074;13.754;2024-01-11T12:43:05;6.70;1.00
20291;DHT22;10304;51.074;13.754;2024-01-11T12:45:33;6.50;1.00
20291;DHT22;10304;51.074;13.754;2024-01-11T12:48:01;6.40;1.00
20291;DHT22;10304;51.074;13.754;2024-01-11T12:50:31;6.30;1.00
20291;DHT22;10304;51.074;13.754;2024-01-11T12:53:06;6.20;1.00
20291;DHT22;10304;51.074;13.754;2024-01-11T12:55:34;6.10;1.00
20291;DHT22;10304;51.074;13.754;2024-01-11T12:58:22;6.00;1.00
20291;DHT22;10304;51.074;13.754;2024-01-11T13:00:49;6.00;1.00
20291;DHT22;10304;51.074;13.754;2024-01-11T13:03:16;6.00;1.00
20291;DHT22;10304;51.074;13.754;2024-01-11T13:05:44;5.90;1.00
20291;DHT22;10304;51.074;13.754;2024-01-11T13:08:11;5.90;1.00
20291;DHT22;10304;51.074;13.754;2024-01-11T13:10:38;5.90;1.00
20291;DHT22;10304;51.074;13.754;2024-01-11T13:13:05;6.00;1.00
20291;DHT22;10304;51.074;13.754;2024-01-11T13:15:36;6.00;1.00
20291;DHT22;10304;51.074;13.754;2024-01-11T13:18:03;6.10;1.00
20291;DHT22;10304;51.074;13.754;2024-01-11T13:20:31;6.10;1.00
20291;DHT22;10304;51.074;13.754;2024-01-11T13:23:15;6.10;1.00
20291;DHT22;10304;51.074;13.754;2024-01-11T13:25:44;6.20;1.00
20291;DHT22;10304;51.074;13.754;2024-01-11T13:28:11;6.30;1.00
20291;DHT22;10304;51.074;13.754;2024-01-11T13:30:42;6.30;1.00
20291;DHT22;10304;51.074;13.754;2024-01-11T13:33:10;6.20;1.00
20291;DHT22;10304;51.074;13.754;2024-01-11T13:35:39;6.10;1.00
20291;DHT22;10304;51.074;13.754;2024-01-11T13:38:07;5.90;1.00
20291;DHT22;10304;51.074;13.754;2024-01-11T13:40:35;5.80;1.00
20291;DHT22;10304;51.074;13.754;2024-01-11T13:43:02;5.70;1.00
20291;DHT22;10304;51.074;13.754;2024-01-11T13:45:30;5.70;1.00
20291;DHT22;10304;51.074;13.754;2024-01-11T13:47:58;5.70;1.00
20291;DHT22;10304;51.074;13.754;2024-01-11T13:50:26;6.10;1.00
20291;DHT22;10304;51.074;13.754;2024-01-11T13:52:54;6.40;1.00
20291;DHT22;10304;51.074;13.754;2024-01-11T13:55:21;7.00;1.00
20291;DHT22;10304;51.074;13.754;2024-01-11T13:57:52;7.40;1.00
20291;DHT22;10304;51.074;13.754;2024-01-11T14:00:20;7.70;1.00
20291;DHT22;10304;51.074;13.754;2024-01-11T14:02:48;7.70;1.00
20291;DHT22;10304;51.074;13.754;2024-01-11T14:05:16;7.80;1.00
20291;DHT22;10304;51.074;13.754;2024-01-11T14:07:46;8.10;1.00
20291;DHT22;10304;51.074;13.754;2024-01-11T14:10:14;8.50;1.00
20291;DHT22;10304;51.074;13.754;2024-01-11T14:12:42;8.90;1.00
20291;DHT22;10304;51.074;13.754;2024-01-11T14:15:09;9.30;1.00
20291;DHT22;10304;51.074;13.754;2024-01-11T14:17:40;9.50;1.00
20291;DHT22;10304;51.074;13.754;2024-01-11T14:20:11;9.70;1.00
20291;DHT22;10304;51.074;13.754;2024-01-11T14:22:43;9.80;1.00
20291;DHT22;10304;51.074;13.754;2024-01-11T14:25:23;9.80;1.00
20291;DHT22;10304;51.074;13.754;2024-01-11T14:27:54;9.70;1.00
20291;DHT22;10304;51.074;13.754;2024-01-11T14:30:22;9.70;1.00
20291;DHT22;10304;51.074;13.754;2024-01-11T14:32:50;9.50;1.00
20291;DHT22;10304;51.074;13.754;2024-01-11T14:35:18;9.40;1.00
20291;DHT22;10304;51.074;13.754;2024-01-11T14:37:45;9.20;1.00
20291;DHT22;10304;51.074;13.754;2024-01-11T14:40:12;8.80;1.00
20291;DHT22;10304;51.074;13.754;2024-01-11T14:42:39;8.30;1.00
20291;DHT22;10304;51.074;13.754;2024-01-11T14:45:08;7.90;1.00
20291;DHT22;10304;51.074;13.754;2024-01-11T14:47:35;7.50;1.00
20291;DHT22;10304;51.074;13.754;2024-01-11T14:50:03;7.40;1.00
20291;DHT22;10304;51.074;13.754;2024-01-11T14:52:31;7.20;1.00
20291;DHT22;10304;51.074;13.754;2024-01-11T14:54:59;7.00;1.00
20291;DHT22;10304;51.074;13.754;2024-01-11T14:57:26;6.80;1.00
20291;DHT22;10304;51.074;13.754;2024-01-11T14:59:53;6.50;1.00
20291;DHT22;10304;51.074;13.754;2024-01-11T15:02:21;6.20;1.00
20291;DHT22;10304;51.074;13.754;2024-01-11T15:04:49;5.90;1.00
20291;DHT22;10304;51.074;13.754;2024-01-11T15:07:16;5.50;1.00
20291;DHT22;10304;51.074;13.754;2024-01-11T15:09:43;5.20;1.00
20291;DHT22;10304;51.074;13.754;2024-01-11T15:12:10;4.90;1.00
20291;DHT22;10304;51.074;13.754;2024-01-11T15:14:37;4.60;1.00
20291;DHT22;10304;51.074;13.754;2024-01-11T15:17:05;4.50;1.00
20291;DHT22;10304;51.074;13.754;2024-01-11T15:19:32;4.20;1.00
20291;DHT22;10304;51.074;13.754;2024-01-11T15:21:59;3.90;1.00
20291;DHT22;10304;51.074;13.754;2024-01-11T15:24:26;3.70;1.00
20291;DHT22;10304;51.074;13.754;2024-01-11T15:26:55;3.50;1.00
20291;DHT22;10304;51.074;13.754;2024-01-11T15:29:22;3.30;1.00
20291;DHT22;10304;51.074;13.754;2024-01-11T15:31:51;3.10;1.00
20291;DHT22;10304;51.074;13.754;2024-01-11T15:34:18;3.00;1.00
20291;DHT22;10304;51.074;13.754;2024-01-11T15:36:46;2.80;1.00
20291;DHT22;10304;51.074;13.754;2024-01-11T15:39:13;2.70;1.00
20291;DHT22;10304;51.074;13.754;2024-01-11T15:41:54;2.50;1.00
20291;DHT22;10304;51.074;13.754;2024-01-11T15:44:23;2.40;1.00